KBKF

Buckley AFB Airport

Aurora, Colorado, USA
METAR KBKF 260258Z 09008KT 10SM FEW120 22/03 A3001 RMK AO2A SLP084 T02180034 53003
Observed Flight Rules
May-26 @ 02:58 UTC (an hour ago) Visual Flight Rules
Wind Visibility Clouds
90° at 8 knots 10 miles
  • Few at 12,000' AGL
Temperatures Readings
Current 22°C / 72°F
Dewpoint 3°C / 37°F
Humidity 29%
Altimeter 30.01" Hg
Pressure 1008.4 hPa
Elevation 1726
METAR KBKF 260258Z 09008KT 10SM FEW120 22/03 A3001 RMK AO2A SLP084 T02180034 53003
Observed Flight Rules
May-26 @ 02:58 UTC
(an hour ago)
VFR
Wind Visibility
90° at 8 knots 10 miles
Clouds
  • Few at 12,000' AGL
Temperature Dewpoint
22°C / 72°F 3°C / 37°F
Humidity Altimeter Pressure
29% 30.01" Hg 1008.4 hPa